M/V Gs980 — WTK9405 — position and weather

sailwx.info

Track history (hours):
 
Tides and Currents Weather Stations Pressure Air Temp Water Temp Dewpoint Dewpoint Depression Visibility Wind Speed Wind Dir Waves Ship Positions

M/V Gs980

Owner: ERGON MARINE AND INDUSTRIAL SUPPLY, VICKSBURG, MS. More information available from US FCC via Universal Licensing System and Coast Guard Vessel Documentation Center.

Last reported at 2016-Sep-29 23:33 UTC. Time now 2016-Sep-30 01:33 UTC.
Position N 32°21' W 090°53'.

Length 16 m.

Type: Towing. MMSI: 367099640.

Date/timePositionNaut miles runAvg speedWind from/ knotsBaromVisibWave heightAir tempDewpointWater temp
2016-Sep-29 23:33N 32°21' W 090°53'1 0.3
2016-Sep-29 21:33N 32°21' W 090°54'0 0.0
2016-Sep-29 20:33N 32°21' W 090°54'1 1.2
2016-Sep-29 19:33N 32°22' W 090°53'1 0.3
2016-Sep-29 16:33N 32°22' W 090°53'2 2.5
2016-Sep-29 15:33N 32°20' W 090°54'2 2.3
2016-Sep-29 14:33N 32°21' W 090°56'1 1.0
2016-Sep-29 13:33N 32°21' W 090°58'4 0.8
2016-Sep-29 08:33N 32°23' W 090°53'0 0.0
2016-Sep-29 07:33N 32°23' W 090°53'0 0.0
2016-Sep-29 00:33N 32°23' W 090°54'3 0.9
2016-Sep-28 21:33N 32°21' W 090°55'1 0.7
2016-Sep-28 19:33N 32°21' W 090°56'2 0.8
2016-Sep-28 16:33N 32°21' W 090°54'1 1.3
2016-Sep-28 15:33N 32°22' W 090°53'1 0.5
2016-Sep-28 12:33N 32°20' W 090°54'3 0.6
2016-Sep-28 08:33N 32°18' W 090°55'4 0.9
2016-Sep-28 03:33N 32°22' W 090°53'2 1.8
2016-Sep-28 02:33N 32°21' W 090°54'3 0.4
2016-Sep-27 19:33N 32°23' W 090°54'1 0.1
2016-Sep-27 14:33N 32°23' W 090°53'0 0.3
2016-Sep-27 13:33N 32°23' W 090°54'4 1.1
2016-Sep-27 10:21N 32°20' W 090°54'1 0.1
2016-Sep-27 00:33N 32°20' W 090°54'1 0.2
2016-Sep-26 20:33N 32°20' W 090°54'2 1.8
2016-Sep-26 19:34N 32°18' W 090°55'3 0.7
2016-Sep-26 15:34N 32°20' W 090°54'3 1.3
2016-Sep-26 13:33N 32°18' W 090°55'2 1.0
2016-Sep-26 11:33N 32°20' W 090°54'3 0.9
2016-Sep-26 08:33N 32°18' W 090°55'1 0.1
2016-Sep-26 02:33N 32°18' W 090°55'3 2.7
2016-Sep-26 01:33N 32°20' W 090°54'3 2.8
2016-Sep-26 00:33N 32°23' W 090°53'3 1.2
2016-Sep-25 21:33N 32°21' W 090°56'3 0.6
2016-Sep-25 17:33N 32°21' W 090°53'5 4.7
2016-Sep-25 16:33N 32°21' W 090°59'3 3.3
2016-Sep-25 15:33N 32°21' W 090°55'2 2.2
2016-Sep-25 14:33N 32°22' W 090°53'1 0.7
2016-Sep-25 12:33N 32°23' W 090°55'3 3.0
2016-Sep-25 11:33N 32°20' W 090°54'3 1.5
2016-Sep-25 09:33N 32°23' W 090°53'0 0.0
2016-Sep-25 07:34N 32°23' W 090°53'0 0.0
2016-Sep-25 04:33N 32°23' W 090°53'1 0.3
2016-Sep-25 00:33N 32°22' W 090°53'2 0.7
2016-Sep-24 21:34N 32°20' W 090°54'0 0.1
2016-Sep-24 19:33N 32°21' W 090°54'0 0.0
2016-Sep-24 18:33N 32°21' W 090°54'0 0.0
2016-Sep-24 17:33N 32°21' W 090°54'1 0.7
2016-Sep-24 16:33N 32°21' W 090°53'1 0.5
2016-Sep-24 14:33N 32°20' W 090°54'3 1.5
2016-Sep-24 12:34N 32°18' W 090°55'4 0.5
2016-Sep-24 03:33N 32°21' W 090°59'4 3.6
2016-Sep-24 02:33N 32°20' W 090°55'1 0.9
2016-Sep-24 01:33N 32°21' W 090°54'2 1.8
2016-Sep-24 00:33N 32°22' W 090°53'1 0.1
2016-Sep-23 19:33N 32°23' W 090°53'1 0.3
2016-Sep-23 17:33N 32°23' W 090°53'1 1.4
2016-Sep-23 16:33N 32°24' W 090°55'0 0.2
2016-Sep-23 15:33N 32°24' W 090°55'3 1.7
2016-Sep-23 13:33N 32°20' W 090°54'4 1.1
2016-Sep-23 09:33N 32°21' W 090°59'4 1.5
2016-Sep-23 06:33N 32°18' W 090°55'4 1.8
2016-Sep-23 04:33N 32°21' W 090°57'4 3.9
2016-Sep-23 03:33N 32°22' W 090°53'2 1.6
2016-Sep-23 02:33N 32°23' W 090°53'3 3.0
2016-Sep-23 01:33N 32°20' W 090°54'2 2.4
2016-Sep-23 00:33N 32°21' W 090°57'3 2.3
2016-Sep-22 23:21N 32°20' W 090°54'3 1.1
2016-Sep-22 20:33N 32°22' W 090°53'1 0.1
2016-Sep-22 12:33N 32°21' W 090°53'2 0.1
2016-Sep-21 22:32N 32°20' W 090°54'4 1.4
2016-Sep-21 19:33N 32°24' W 090°55'4 1.4
2016-Sep-21 16:33N 32°20' W 090°54'1 0.1
2016-Sep-21 09:33N 32°20' W 090°54'3 2.8
2016-Sep-21 08:33N 32°23' W 090°53'2 0.6
2016-Sep-21 05:33N 32°21' W 090°53'0 0.0
2016-Sep-21 03:33N 32°21' W 090°53'1 0.7
2016-Sep-21 02:33N 32°21' W 090°53'3 0.3
2016-Sep-20 17:33N 32°24' W 090°55'4 1.3
2016-Sep-20 14:33N 32°21' W 090°58'4 4.3
2016-Sep-20 13:33N 32°21' W 090°53'0 0.2
2016-Sep-20 10:33N 32°21' W 090°53'3 1.3
2016-Sep-20 08:33N 32°23' W 090°53'0 0.0
2016-Sep-20 07:33N 32°23' W 090°53'0 0.0
2016-Sep-20 06:33N 32°23' W 090°53'6 1.4
2016-Sep-20 02:33N 32°18' W 090°55'3 1.2
2016-Sep-19 23:33N 32°21' W 090°53'  
Track history (hours):
 
Tides and Currents Weather Stations Pressure Air Temp Water Temp Dewpoint Dewpoint Depression Visibility Wind Speed Wind Dir Waves Ship Positions

M/V Gs980

Owner: ERGON MARINE AND INDUSTRIAL SUPPLY, VICKSBURG, MS. More information available from US FCC via Universal Licensing System and Coast Guard Vessel Documentation Center.

Last reported at 2016-Sep-29 23:33 UTC. Time now 2016-Sep-30 01:33 UTC.
Position N 32°21' W 090°53'.

Length 16 m.

Type: Towing. MMSI: 367099640.

Date/timePositionNaut miles runAvg speedWind from/ knotsBaromVisibWave heightAir tempDewpointWater temp
2016-Sep-29 23:33N 32°21' W 090°53'1 0.3
2016-Sep-29 21:33N 32°21' W 090°54'0 0.0
2016-Sep-29 20:33N 32°21' W 090°54'1 1.2
2016-Sep-29 19:33N 32°22' W 090°53'1 0.3
2016-Sep-29 16:33N 32°22' W 090°53'2 2.5
2016-Sep-29 15:33N 32°20' W 090°54'2 2.3
2016-Sep-29 14:33N 32°21' W 090°56'1 1.0
2016-Sep-29 13:33N 32°21' W 090°58'4 0.8
2016-Sep-29 08:33N 32°23' W 090°53'0 0.0
2016-Sep-29 07:33N 32°23' W 090°53'0 0.0
2016-Sep-29 00:33N 32°23' W 090°54'3 0.9
2016-Sep-28 21:33N 32°21' W 090°55'1 0.7
2016-Sep-28 19:33N 32°21' W 090°56'2 0.8
2016-Sep-28 16:33N 32°21' W 090°54'1 1.3
2016-Sep-28 15:33N 32°22' W 090°53'1 0.5
2016-Sep-28 12:33N 32°20' W 090°54'3 0.6
2016-Sep-28 08:33N 32°18' W 090°55'4 0.9
2016-Sep-28 03:33N 32°22' W 090°53'2 1.8
2016-Sep-28 02:33N 32°21' W 090°54'3 0.4
2016-Sep-27 19:33N 32°23' W 090°54'1 0.1
2016-Sep-27 14:33N 32°23' W 090°53'0 0.3
2016-Sep-27 13:33N 32°23' W 090°54'4 1.1
2016-Sep-27 10:21N 32°20' W 090°54'1 0.1
2016-Sep-27 00:33N 32°20' W 090°54'1 0.2
2016-Sep-26 20:33N 32°20' W 090°54'2 1.8
2016-Sep-26 19:34N 32°18' W 090°55'3 0.7
2016-Sep-26 15:34N 32°20' W 090°54'3 1.3
2016-Sep-26 13:33N 32°18' W 090°55'2 1.0
2016-Sep-26 11:33N 32°20' W 090°54'3 0.9
2016-Sep-26 08:33N 32°18' W 090°55'1 0.1
2016-Sep-26 02:33N 32°18' W 090°55'3 2.7
2016-Sep-26 01:33N 32°20' W 090°54'3 2.8
2016-Sep-26 00:33N 32°23' W 090°53'3 1.2
2016-Sep-25 21:33N 32°21' W 090°56'3 0.6
2016-Sep-25 17:33N 32°21' W 090°53'5 4.7
2016-Sep-25 16:33N 32°21' W 090°59'3 3.3
2016-Sep-25 15:33N 32°21' W 090°55'2 2.2
2016-Sep-25 14:33N 32°22' W 090°53'1 0.7
2016-Sep-25 12:33N 32°23' W 090°55'3 3.0
2016-Sep-25 11:33N 32°20' W 090°54'3 1.5
2016-Sep-25 09:33N 32°23' W 090°53'0 0.0
2016-Sep-25 07:34N 32°23' W 090°53'0 0.0
2016-Sep-25 04:33N 32°23' W 090°53'1 0.3
2016-Sep-25 00:33N 32°22' W 090°53'2 0.7
2016-Sep-24 21:34N 32°20' W 090°54'0 0.1
2016-Sep-24 19:33N 32°21' W 090°54'0 0.0
2016-Sep-24 18:33N 32°21' W 090°54'0 0.0
2016-Sep-24 17:33N 32°21' W 090°54'1 0.7
2016-Sep-24 16:33N 32°21' W 090°53'1 0.5
2016-Sep-24 14:33N 32°20' W 090°54'3 1.5
2016-Sep-24 12:34N 32°18' W 090°55'4 0.5
2016-Sep-24 03:33N 32°21' W 090°59'4 3.6
2016-Sep-24 02:33N 32°20' W 090°55'1 0.9
2016-Sep-24 01:33N 32°21' W 090°54'2 1.8
2016-Sep-24 00:33N 32°22' W 090°53'1 0.1
2016-Sep-23 19:33N 32°23' W 090°53'1 0.3
2016-Sep-23 17:33N 32°23' W 090°53'1 1.4
2016-Sep-23 16:33N 32°24' W 090°55'0 0.2
2016-Sep-23 15:33N 32°24' W 090°55'3 1.7
2016-Sep-23 13:33N 32°20' W 090°54'4 1.1
2016-Sep-23 09:33N 32°21' W 090°59'4 1.5
2016-Sep-23 06:33N 32°18' W 090°55'4 1.8
2016-Sep-23 04:33N 32°21' W 090°57'4 3.9
2016-Sep-23 03:33N 32°22' W 090°53'2 1.6
2016-Sep-23 02:33N 32°23' W 090°53'3 3.0
2016-Sep-23 01:33N 32°20' W 090°54'2 2.4
2016-Sep-23 00:33N 32°21' W 090°57'3 2.3
2016-Sep-22 23:21N 32°20' W 090°54'3 1.1
2016-Sep-22 20:33N 32°22' W 090°53'1 0.1
2016-Sep-22 12:33N 32°21' W 090°53'2 0.1
2016-Sep-21 22:32N 32°20' W 090°54'4 1.4
2016-Sep-21 19:33N 32°24' W 090°55'4 1.4
2016-Sep-21 16:33N 32°20' W 090°54'1 0.1
2016-Sep-21 09:33N 32°20' W 090°54'3 2.8
2016-Sep-21 08:33N 32°23' W 090°53'2 0.6
2016-Sep-21 05:33N 32°21' W 090°53'0 0.0
2016-Sep-21 03:33N 32°21' W 090°53'1 0.7
2016-Sep-21 02:33N 32°21' W 090°53'3 0.3
2016-Sep-20 17:33N 32°24' W 090°55'4 1.3
2016-Sep-20 14:33N 32°21' W 090°58'4 4.3
2016-Sep-20 13:33N 32°21' W 090°53'0 0.2
2016-Sep-20 10:33N 32°21' W 090°53'3 1.3
2016-Sep-20 08:33N 32°23' W 090°53'0 0.0
2016-Sep-20 07:33N 32°23' W 090°53'0 0.0
2016-Sep-20 06:33N 32°23' W 090°53'6 1.4
2016-Sep-20 02:33N 32°18' W 090°55'3 1.2
2016-Sep-19 23:33N 32°21' W 090°53'  

Dump ship's entire track history